Time;durP1;ratioP1;P1;durP2;ratioP2;P2;SDS_P1;SDS_P2;PMS_P1;PMS_P2;Temp;Humidity;BMP_temperature;BMP_pressure;BME280_temperature;BME280_humidity;BME280_pressure;Samples;Min_cycle;Max_cycle;Signal;HPM_P1;HPM_P2
2023/02/09 00:02:18;;;;;;;93.40;46.10;;;;;;;-5.24;76.51;102642.92;103144;1260;111479;-68
2023/02/09 00:04:48;;;;;;;95.80;46.60;;;;;;;-5.27;76.37;102635.08;102219;1257;1002981;-68
2023/02/09 00:07:15;;;;;;;100.50;47.60;;;;;;;-5.30;76.81;102636.36;103095;1258;98161;-68
2023/02/09 00:09:44;;;;;;;101.30;47.90;;;;;;;-5.32;76.85;102635.70;102341;1260;1002950;-68
2023/02/09 00:15:00;;;;;;;91.20;46.00;;;;;;;-5.39;76.97;102640.09;103000;1260;111191;-69
2023/02/09 00:17:27;;;;;;;107.50;47.80;;;;;;;-5.42;76.82;102642.29;102161;1255;1002536;-69
2023/02/09 00:19:56;;;;;;;97.80;47.80;;;;;;;-5.46;77.10;102640.50;103073;1260;97780;-69
2023/02/09 00:22:25;;;;;;;101.90;49.50;;;;;;;-5.50;76.89;102645.16;102947;1255;138826;-69
2023/02/09 00:24:53;;;;;;;102.00;50.30;;;;;;;-5.53;77.18;102644.94;103094;1256;97827;-70
2023/02/09 00:27:23;;;;;;;105.10;50.60;;;;;;;-5.56;77.09;102640.62;102294;1256;1003036;-68
2023/02/09 00:29:52;;;;;;;110.80;51.50;;;;;;;-5.61;76.86;102639.59;102142;1257;1002955;-69
2023/02/09 00:32:19;;;;;;;108.80;50.90;;;;;;;-5.64;77.34;102643.10;103063;1256;98380;-69
2023/02/09 00:34:46;;;;;;;111.40;52.10;;;;;;;-5.67;77.20;102645.10;102973;1258;139559;-68
2023/02/09 00:37:17;;;;;;;114.10;52.80;;;;;;;-5.69;77.18;102649.02;102296;1259;1003582;-69
2023/02/09 00:39:44;;;;;;;109.70;51.70;;;;;;;-5.69;77.46;102651.58;103731;1256;1002383;-68
2023/02/09 00:42:12;;;;;;;102.10;50.00;;;;;;;-5.68;77.16;102646.73;103350;1255;107694;-68
2023/02/09 00:44:41;;;;;;;102.60;49.90;;;;;;;-5.68;77.10;102644.88;103092;1260;98336;-69
2023/02/09 00:47:09;;;;;;;93.20;46.60;;;;;;;-5.69;77.09;102639.06;102922;1255;138871;-68
2023/02/09 00:49:38;;;;;;;96.40;44.90;;;;;;;-5.70;77.27;102635.05;101574;1256;1002698;-69
2023/02/09 00:52:06;;;;;;;97.70;46.50;;;;;;;-5.72;77.11;102630.70;102198;1255;1002934;-69
2023/02/09 00:54:35;;;;;;;92.10;45.50;;;;;;;-5.74;77.09;102621.89;103118;1258;108255;-68
2023/02/09 00:57:04;;;;;;;100.60;47.00;;;;;;;-5.77;77.05;102616.07;102206;1260;1002927;-68
2023/02/09 00:59:34;;;;;;;88.10;42.70;;;;;;;-5.79;77.17;102612.36;102929;1257;139377;-69
2023/02/09 01:02:01;;;;;;;102.10;47.50;;;;;;;-5.81;77.26;102614.92;103105;1258;97679;-69
2023/02/09 01:04:29;;;;;;;93.70;45.60;;;;;;;-5.84;77.25;102608.48;102979;1255;139036;-69
2023/02/09 01:06:56;;;;;;;91.50;46.10;;;;;;;-5.87;77.38;102600.45;102319;1258;1005739;-69
2023/02/09 01:09:26;;;;;;;90.70;44.80;;;;;;;-5.91;77.28;102594.63;102302;1255;1002648;-68
2023/02/09 01:11:53;;;;;;;89.50;43.40;;;;;;;-5.95;77.49;102599.08;102172;1256;1002595;-68
2023/02/09 01:14:24;;;;;;;96.60;46.20;;;;;;;-5.99;77.54;102594.86;103036;1260;97829;-69
2023/02/09 01:16:51;;;;;;;87.10;44.30;;;;;;;-6.04;77.41;102596.35;102957;1256;138725;-69
2023/02/09 01:19:18;;;;;;;98.50;47.00;;;;;;;-6.10;77.53;102591.75;102957;1255;106581;-69
2023/02/09 01:21:49;;;;;;;92.40;43.10;;;;;;;-6.13;77.34;102587.63;102375;1255;1004065;-69
2023/02/09 01:24:16;;;;;;;89.70;44.30;;;;;;;-6.15;77.63;102589.48;103073;1255;107525;-68
2023/02/09 01:26:43;;;;;;;96.30;44.90;;;;;;;-6.17;77.49;102583.77;102954;1255;97877;-68
2023/02/09 01:29:22;;;;;;;93.70;44.60;;;;;;;-6.17;77.40;102584.26;102443;1255;1002708;-68
2023/02/09 01:31:49;;;;;;;93.60;45.70;;;;;;;-6.18;77.58;102574.02;102958;1261;110300;-68
2023/02/09 01:34:19;;;;;;;96.50;43.70;;;;;;;-6.19;77.53;102566.52;102892;1259;138942;-69
2023/02/09 01:36:48;;;;;;;91.10;43.50;;;;;;;-6.21;77.66;102562.66;103029;1258;107098;-68
2023/02/09 01:39:16;;;;;;;92.80;44.10;;;;;;;-6.22;77.48;102562.23;103023;1255;97963;-68
2023/02/09 01:41:43;;;;;;;92.40;44.20;;;;;;;-6.23;77.69;102559.27;102842;1255;138692;-68
2023/02/09 01:44:41;;;;;;;96.10;44.20;;;;;;;-6.25;77.53;102558.27;102806;1255;107547;-68
2023/02/09 01:47:15;;;;;;;94.50;42.70;;;;;;;-6.26;77.80;102555.02;102863;1256;138792;-69
2023/02/09 01:49:44;;;;;;;91.70;43.20;;;;;;;-6.26;77.56;102549.61;103034;1259;108433;-68
2023/02/09 01:52:17;;;;;;;84.10;40.50;;;;;;;-6.25;77.84;102546.60;101994;1260;1003305;-68
2023/02/09 01:54:49;;;;;;;91.50;43.10;;;;;;;-6.25;77.63;102542.04;102178;1256;1002875;-68
2023/02/09 01:57:20;;;;;;;95.50;43.40;;;;;;;-6.26;77.60;102533.19;101392;1256;1003655;-69
2023/02/09 01:59:53;;;;;;;90.90;41.80;;;;;;;-6.27;77.56;102532.89;102838;1256;139089;-68
2023/02/09 02:02:22;;;;;;;85.00;41.90;;;;;;;-6.29;77.64;102530.01;102975;1259;107806;-69
2023/02/09 02:04:50;;;;;;;86.90;43.40;;;;;;;-6.31;77.45;102518.54;102111;1255;1002816;-68
2023/02/09 02:07:25;;;;;;;89.50;41.40;;;;;;;-6.32;77.66;102513.70;103003;1255;111778;-69
2023/02/09 02:09:53;;;;;;;95.00;43.20;;;;;;;-6.33;77.71;102505.16;102832;1256;139117;-70
2023/02/09 02:12:20;;;;;;;92.60;42.30;;;;;;;-6.34;77.75;102504.62;103000;1260;98699;-68
2023/02/09 02:14:47;;;;;;;85.20;41.10;;;;;;;-6.34;77.78;102499.36;102258;1260;1002819;-68
2023/02/09 02:17:28;;;;;;;92.20;42.90;;;;;;;-6.33;78.19;102498.45;102896;1261;138954;-67
2023/02/09 02:20:27;;;;;;;83.50;38.80;;;;;;;-6.30;78.11;102496.29;103058;1255;111903;-68
2023/02/09 02:23:05;;;;;;;86.10;39.40;;;;;;;-6.25;78.21;102488.90;102872;1255;138899;-69
2023/02/09 02:26:07;;;;;;;82.80;40.40;;;;;;;-6.20;77.97;102486.16;103067;1260;98346;-69
2023/02/09 02:29:06;;;;;;;83.00;40.20;;;;;;;-6.20;77.99;102477.05;102145;1255;1002668;-68
2023/02/09 02:32:10;;;;;;;88.50;41.20;;;;;;;-6.20;78.01;102476.05;103049;1256;97914;-69
2023/02/09 02:34:45;;;;;;;84.30;40.60;;;;;;;-6.19;78.27;102467.93;102431;1260;1003363;-68
2023/02/09 02:37:24;;;;;;;88.50;42.10;;;;;;;-6.18;78.34;102465.17;101549;1260;1003512;-68
2023/02/09 02:39:59;;;;;;;91.60;42.30;;;;;;;-6.18;78.35;102463.14;103130;1255;97792;-68
2023/02/09 02:45:29;;;;;;;81.80;40.10;;;;;;;-6.14;78.29;102459.02;100064;1255;2995564;-68
2023/02/09 02:48:07;;;;;;;86.40;40.30;;;;;;;-6.12;78.36;102457.81;104411;1255;138909;-68
2023/02/09 02:50:44;;;;;;;82.20;40.10;;;;;;;-6.10;78.50;102460.52;104474;1255;107091;-67
2023/02/09 02:53:17;;;;;;;82.70;40.30;;;;;;;-6.06;78.61;102458.56;104345;1259;138853;-67
2023/02/09 02:55:59;;;;;;;83.10;40.30;;;;;;;-6.05;78.61;102452.72;104457;1255;107723;-68
2023/02/09 02:58:29;;;;;;;83.50;40.10;;;;;;;-6.03;78.40;102442.66;103312;1255;139027;-68
2023/02/09 03:01:00;;;;;;;84.20;41.30;;;;;;;-5.99;78.65;102439.02;102338;1259;1003474;-68
2023/02/09 03:03:32;;;;;;;88.40;43.90;;;;;;;-5.95;78.42;102440.66;102220;1259;1003124;-68
2023/02/09 03:06:02;;;;;;;83.80;41.70;;;;;;;-5.94;78.44;102433.80;103006;1255;139037;-68
2023/02/09 03:08:30;;;;;;;81.30;39.30;;;;;;;-5.92;78.23;102427.00;102352;1255;1003347;-68
2023/02/09 03:10:57;;;;;;;81.90;39.60;;;;;;;-5.92;78.45;102423.80;101396;1259;1015358;-68
2023/02/09 03:13:52;;;;;;;85.80;41.20;;;;;;;-5.92;78.53;102419.75;103081;1259;111325;-68
2023/02/09 03:16:27;;;;;;;81.50;39.10;;;;;;;-5.92;78.30;102416.86;102183;1258;1004080;-68
2023/02/09 03:19:09;;;;;;;81.90;39.20;;;;;;;-5.93;78.26;102411.69;103020;1257;97701;-67
2023/02/09 03:21:45;;;;;;;84.40;40.30;;;;;;;-5.94;78.17;102409.06;103065;1255;1002395;-68
2023/02/09 03:24:24;;;;;;;78.20;39.60;;;;;;;-5.96;78.23;102404.02;102924;1259;138954;-68
2023/02/09 03:26:55;;;;;;;81.00;39.50;;;;;;;-5.96;78.12;102400.94;102337;1259;1003527;-68
2023/02/09 03:29:28;;;;;;;82.30;40.90;;;;;;;-5.97;78.28;102398.19;102894;1258;139562;-68
2023/02/09 03:31:56;;;;;;;89.70;42.60;;;;;;;-5.95;78.31;102403.56;103024;1260;97770;-68
2023/02/09 03:34:23;;;;;;;83.50;42.00;;;;;;;-5.95;78.29;102405.46;102212;1260;1003409;-68
2023/02/09 03:36:55;;;;;;;79.60;41.70;;;;;;;-5.96;77.83;102405.70;102342;1255;1015855;-68
2023/02/09 03:39:22;;;;;;;79.70;38.70;;;;;;;-5.99;78.16;102408.23;102940;1257;110221;-69
2023/02/09 03:41:49;;;;;;;85.50;40.00;;;;;;;-6.01;78.18;102408.27;102202;1257;1003706;-68
2023/02/09 03:44:28;;;;;;;87.00;40.20;;;;;;;-6.02;77.77;102408.70;102273;1255;1003443;-68
2023/02/09 03:46:57;;;;;;;83.90;41.00;;;;;;;-6.02;78.08;102409.50;102151;1256;1002953;-68
2023/02/09 03:49:29;;;;;;;87.40;39.40;;;;;;;-6.04;78.14;102415.00;103015;1258;97812;-67
2023/02/09 03:52:00;;;;;;;84.60;39.80;;;;;;;-6.07;77.98;102414.14;102970;1260;138860;-68
2023/02/09 03:54:39;;;;;;;79.60;39.10;;;;;;;-6.11;77.74;102413.52;102548;1256;1002194;-68
2023/02/09 03:57:07;;;;;;;81.20;38.90;;;;;;;-6.13;78.06;102413.36;102280;1255;1002521;-67
2023/02/09 03:59:36;;;;;;;81.60;39.80;;;;;;;-6.15;77.82;102409.66;102204;1255;1002886;-67
2023/02/09 04:02:08;;;;;;;81.00;39.20;;;;;;;-6.17;78.12;102410.05;103030;1257;97680;-68
2023/02/09 04:04:56;;;;;;;81.40;38.50;;;;;;;-6.18;78.08;102409.13;102778;1257;139568;-68
2023/02/09 04:07:37;;;;;;;78.00;37.80;;;;;;;-6.17;78.20;102409.49;102255;1259;1003173;-67
2023/02/09 04:10:25;;;;;;;81.70;39.50;;;;;;;-6.18;78.20;102411.15;102910;1257;139258;-67
2023/02/09 04:12:51;;;;;;;77.90;37.90;;;;;;;-6.18;78.19;102407.39;103004;1255;107689;-67
2023/02/09 04:15:21;;;;;;;78.60;37.90;;;;;;;-6.20;77.97;102405.77;102954;1255;97793;-68
2023/02/09 04:17:51;;;;;;;73.80;37.10;;;;;;;-6.19;78.25;102409.02;102991;1260;138873;-67
2023/02/09 04:20:18;;;;;;;79.00;38.30;;;;;;;-6.19;78.30;102415.29;103034;1257;107824;-68
2023/02/09 04:22:48;;;;;;;83.00;38.50;;;;;;;-6.19;78.25;102410.54;102132;1255;1003620;-68
2023/02/09 04:25:15;;;;;;;81.40;38.30;;;;;;;-6.20;78.27;102407.14;102978;1255;107282;-68
2023/02/09 04:27:46;;;;;;;84.20;40.10;;;;;;;-6.21;78.14;102405.33;103021;1258;97817;-68
2023/02/09 04:30:18;;;;;;;79.60;38.10;;;;;;;-6.23;78.10;102404.05;103046;1259;113257;-68
2023/02/09 04:32:45;;;;;;;83.00;39.40;;;;;;;-6.23;78.00;102399.81;102244;1255;1002538;-68
2023/02/09 04:35:12;;;;;;;78.40;38.00;;;;;;;-6.22;78.13;102401.08;102903;1255;139030;-68
2023/02/09 04:37:39;;;;;;;78.90;38.40;;;;;;;-6.22;78.10;102408.98;103025;1255;107354;-68
2023/02/09 04:40:07;;;;;;;79.40;38.10;;;;;;;-6.23;77.84;102398.47;102883;1255;139343;-69
2023/02/09 04:42:34;;;;;;;78.30;38.00;;;;;;;-6.24;78.13;102395.85;103069;1255;110796;-68
2023/02/09 04:45:02;;;;;;;80.50;38.00;;;;;;;-6.25;78.01;102395.39;103068;1259;107746;-69
2023/02/09 04:47:29;;;;;;;80.00;39.30;;;;;;;-6.26;77.99;102387.92;102990;1260;138825;-68
2023/02/09 04:49:56;;;;;;;79.30;37.20;;;;;;;-6.26;78.00;102388.39;102342;1256;1003107;-68
2023/02/09 04:52:23;;;;;;;78.40;38.40;;;;;;;-6.27;78.20;102386.62;102204;1259;1002590;-68
2023/02/09 04:54:50;;;;;;;81.50;39.00;;;;;;;-6.28;78.02;102386.77;103102;1260;110569;-68
2023/02/09 05:00:05;;;;;;;76.20;37.40;;;;;;;-6.30;78.18;102392.66;102275;1256;1002556;-68
2023/02/09 05:02:34;;;;;;;85.80;38.70;;;;;;;-6.36;78.02;102389.70;102380;1256;1003201;-67
2023/02/09 05:05:02;;;;;;;77.00;38.30;;;;;;;-6.39;77.97;102396.79;103031;1255;140679;-69
2023/02/09 05:07:29;;;;;;;84.00;39.90;;;;;;;-6.43;78.01;102390.30;102942;1260;110299;-68
2023/02/09 05:09:56;;;;;;;88.80;39.50;;;;;;;-6.46;78.04;102386.00;102948;1255;107006;-67
2023/02/09 05:12:23;;;;;;;82.90;39.10;;;;;;;-6.52;78.11;102378.79;102276;1257;1003553;-68
2023/02/09 05:14:50;;;;;;;85.80;39.50;;;;;;;-6.56;78.36;102377.48;103053;1259;108598;-68
2023/02/09 05:17:19;;;;;;;79.70;38.70;;;;;;;-6.59;78.14;102377.43;102837;1257;138882;-68
2023/02/09 05:19:50;;;;;;;79.40;39.40;;;;;;;-6.61;78.16;102378.49;102955;1255;110189;-68
2023/02/09 05:22:17;;;;;;;86.50;39.70;;;;;;;-6.62;78.28;102377.92;102107;1260;1003180;-68
2023/02/09 05:24:45;;;;;;;78.30;38.90;;;;;;;-6.63;78.24;102383.27;102961;1255;97790;-68
2023/02/09 05:27:12;;;;;;;88.20;40.50;;;;;;;-6.65;78.37;102381.77;102981;1255;108942;-68
2023/02/09 05:29:39;;;;;;;88.80;40.50;;;;;;;-6.67;78.47;102382.60;102126;1255;1003487;-68
2023/02/09 05:32:06;;;;;;;88.30;41.50;;;;;;;-6.70;78.54;102385.63;103015;1260;111253;-69
2023/02/09 05:34:34;;;;;;;82.20;39.20;;;;;;;-6.73;78.43;102387.78;102243;1255;1003639;-68
2023/02/09 05:37:01;;;;;;;89.30;40.80;;;;;;;-6.76;78.45;102380.30;103098;1257;97825;-68
2023/02/09 05:39:31;;;;;;;87.40;40.50;;;;;;;-6.79;78.70;102377.19;102285;1255;1003024;-68
2023/02/09 05:42:16;;;;;;;82.80;38.10;;;;;;;-6.81;78.60;102377.55;102241;1259;1003387;-68
2023/02/09 05:44:44;;;;;;;83.10;39.90;;;;;;;-6.84;78.66;102375.45;103116;1255;112030;-68
2023/02/09 05:47:16;;;;;;;89.40;40.00;;;;;;;-6.85;78.78;102375.25;102090;1255;1003260;-69
2023/02/09 05:49:53;;;;;;;86.80;39.50;;;;;;;-6.88;78.81;102376.38;103115;1260;97724;-69
2023/02/09 05:52:21;;;;;;;82.80;38.60;;;;;;;-6.88;78.86;102373.14;102868;1255;138762;-67
2023/02/09 05:54:50;;;;;;;82.00;39.10;;;;;;;-6.92;78.93;102368.33;103046;1259;97947;-68
2023/02/09 05:57:17;;;;;;;92.00;40.00;;;;;;;-6.93;78.82;102366.20;103081;1260;111237;-69
2023/02/09 05:59:44;;;;;;;80.40;39.30;;;;;;;-6.95;78.92;102368.13;102980;1255;138965;-71
2023/02/09 06:02:12;;;;;;;88.00;40.60;;;;;;;-6.96;78.96;102366.65;102999;1257;98368;-70
2023/02/09 06:04:39;;;;;;;80.10;37.70;;;;;;;-6.98;78.97;102363.14;102872;1255;138686;-69
2023/02/09 06:07:07;;;;;;;81.40;36.80;;;;;;;-6.99;79.12;102366.11;102937;1255;97764;-68
2023/02/09 06:09:36;;;;;;;86.70;39.50;;;;;;;-7.00;79.23;102362.14;103071;1260;111333;-68
2023/02/09 06:12:04;;;;;;;86.30;40.70;;;;;;;-7.01;79.34;102355.44;102849;1260;138839;-67
2023/02/09 06:14:31;;;;;;;79.30;37.10;;;;;;;-7.03;79.48;102357.36;102945;1260;98342;-69
2023/02/09 06:16:58;;;;;;;84.70;38.80;;;;;;;-7.04;79.53;102358.33;102858;1258;138681;-68
2023/02/09 06:19:25;;;;;;;87.20;40.00;;;;;;;-7.03;79.39;102354.33;102970;1255;97807;-68
2023/02/09 06:21:53;;;;;;;82.70;40.10;;;;;;;-7.02;79.68;102355.06;103063;1255;110796;-69
2023/02/09 06:24:20;;;;;;;81.20;38.70;;;;;;;-7.02;79.43;102354.73;102206;1259;1003477;-69
2023/02/09 06:26:47;;;;;;;86.70;38.50;;;;;;;-7.01;79.37;102349.88;102285;1256;1003022;-70
2023/02/09 06:29:14;;;;;;;86.60;40.00;;;;;;;-7.00;79.40;102356.56;102131;1255;1003468;-69
2023/02/09 06:31:41;;;;;;;83.10;40.40;;;;;;;-6.99;79.46;102359.21;103023;1255;97783;-68
2023/02/09 06:34:09;;;;;;;81.20;41.40;;;;;;;-6.96;79.52;102358.20;102267;1258;1003260;-68
2023/02/09 06:36:36;;;;;;;79.90;39.70;;;;;;;-6.94;79.55;102361.03;103065;1255;107753;-68
2023/02/09 06:39:06;;;;;;;89.10;41.90;;;;;;;-6.95;79.36;102357.80;103143;1256;97750;-68
2023/02/09 06:41:33;;;;;;;84.90;39.60;;;;;;;-6.94;79.50;102358.70;103642;1255;1002270;-70
2023/02/09 06:44:00;;;;;;;78.60;37.20;;;;;;;-6.92;79.29;102362.05;102342;1260;1003071;-69
2023/02/09 06:46:32;;;;;;;89.30;41.60;;;;;;;-6.86;79.40;102360.64;102936;1260;139176;-70
2023/02/09 06:48:59;;;;;;;87.50;41.80;;;;;;;-6.75;79.29;102359.06;103001;1255;107682;-69
2023/02/09 06:51:26;;;;;;;84.90;38.30;;;;;;;-6.65;79.10;102355.34;101538;1255;1003769;-69
2023/02/09 06:53:54;;;;;;;88.10;40.10;;;;;;;-6.52;79.74;102353.92;103030;1259;139026;-70
2023/02/09 06:56:23;;;;;;;87.20;40.10;;;;;;;-6.40;78.99;102353.20;101586;1255;1002790;-71
2023/02/09 06:58:51;;;;;;;79.80;39.70;;;;;;;-6.20;78.31;102354.77;102440;1258;1003204;-69
2023/02/09 07:01:21;;;;;;;78.90;38.30;;;;;;;-5.87;78.08;102354.18;103071;1259;107926;-69
2023/02/09 07:03:48;;;;;;;84.60;39.30;;;;;;;-5.51;77.00;102356.75;103017;1255;97676;-72
2023/02/09 07:06:20;;;;;;;74.40;40.10;;;;;;;-5.07;76.50;102354.02;102184;1255;1002896;-71
2023/02/09 07:08:48;;;;;;;82.10;40.00;;;;;;;-4.64;74.97;102349.80;103001;1255;98151;-70
2023/02/09 07:11:17;;;;;;;81.80;39.30;;;;;;;-4.24;74.12;102342.13;102926;1260;138733;-71
2023/02/09 07:13:45;;;;;;;83.90;40.00;;;;;;;-3.90;73.49;102340.77;102913;1255;108211;-71
2023/02/09 07:16:13;;;;;;;75.10;39.30;;;;;;;-3.55;72.49;102340.10;102907;1257;139200;-70
2023/02/09 07:18:40;;;;;;;72.30;39.30;;;;;;;-3.28;71.90;102335.42;102921;1255;107708;-71
2023/02/09 07:21:11;;;;;;;74.40;39.40;;;;;;;-3.00;71.91;102338.85;103066;1255;97722;-71
2023/02/09 07:23:38;;;;;;;78.40;39.50;;;;;;;-2.74;70.85;102337.28;102963;1255;138655;-70
2023/02/09 07:26:07;;;;;;;75.20;41.20;;;;;;;-2.41;70.37;102332.90;103030;1259;106672;-69
2023/02/09 07:28:46;;;;;;;73.30;39.70;;;;;;;-1.99;69.26;102329.52;102994;1255;138232;-69
2023/02/09 07:31:34;;;;;;;73.00;41.10;;;;;;;-1.52;67.57;102334.15;103020;1255;108211;-70
2023/02/09 07:34:04;;;;;;;76.60;40.20;;;;;;;-1.25;67.38;102333.95;103022;1260;138874;-70
2023/02/09 07:36:51;;;;;;;75.20;40.60;;;;;;;-0.96;67.21;102328.21;103126;1260;111530;-69
2023/02/09 07:39:37;;;;;;;;;;;;;;;-0.78;66.74;102325.46;102967;1259;108483;-70
2023/02/09 07:42:08;;;;;;;72.10;41.20;;;;;;;-0.67;66.23;102328.23;102966;1259;124224;-69
2023/02/09 07:44:50;;;;;;;73.90;42.10;;;;;;;-0.59;64.43;102331.63;102260;1255;1003553;-71
2023/02/09 07:47:20;;;;;;;72.80;40.80;;;;;;;-0.69;63.07;102330.54;102860;1255;138283;-69
2023/02/09 07:49:47;;;;;;;67.90;40.30;;;;;;;-0.79;63.11;102325.60;103082;1255;111451;-68
2023/02/09 07:52:14;;;;;;;72.50;41.10;;;;;;;-0.74;63.77;102327.55;102953;1255;138107;-69
2023/02/09 07:54:41;;;;;;;69.30;40.60;;;;;;;-0.64;62.42;102325.47;103093;1255;98340;-68
2023/02/09 07:57:08;;;;;;;71.30;41.40;;;;;;;-0.53;62.10;102322.20;103027;1255;107684;-69
2023/02/09 07:59:36;;;;;;;70.10;40.40;;;;;;;-0.42;61.82;102321.32;103036;1257;140917;-68
2023/02/09 08:02:04;;;;;;;74.40;40.70;;;;;;;-0.21;61.98;102323.13;102940;1260;110808;-68
2023/02/09 08:04:35;;;;;;;74.20;42.20;;;;;;;0.03;61.87;102322.50;102934;1260;138129;-69
2023/02/09 08:07:04;;;;;;;72.90;42.50;;;;;;;0.22;60.62;102322.50;103103;1255;97941;-68
2023/02/09 08:09:34;;;;;;;77.20;43.70;;;;;;;0.28;58.83;102322.39;103026;1259;108611;-69
2023/02/09 08:12:05;;;;;;;70.60;42.90;;;;;;;0.37;59.94;102326.55;102634;1255;137807;-68
2023/02/09 08:14:38;;;;;;;70.80;42.20;;;;;;;0.59;59.70;102319.80;102876;1255;110425;-68
2023/02/09 08:17:22;;;;;;;73.40;43.10;;;;;;;0.88;59.44;102315.16;102784;1255;137935;-68
2023/02/09 08:19:52;;;;;;;70.30;42.90;;;;;;;1.13;58.35;102308.10;102912;1255;97773;-67
2023/02/09 08:22:21;;;;;;;68.80;42.00;;;;;;;1.46;58.59;102301.48;102218;1255;1003675;-69
2023/02/09 08:24:49;;;;;;;69.00;42.60;;;;;;;1.83;57.80;102305.42;103131;1255;97801;-68
2023/02/09 08:27:16;;;;;;;66.60;41.50;;;;;;;2.25;56.59;102302.63;102321;1259;1003058;-72
2023/02/09 08:29:43;;;;;;;70.20;42.00;;;;;;;2.56;54.94;102296.48;102827;1256;139650;-69
2023/02/09 08:32:10;;;;;;;64.50;41.00;;;;;;;2.87;54.94;102287.53;103065;1260;97868;-68
2023/02/09 08:34:37;;;;;;;71.80;43.50;;;;;;;3.23;54.80;102280.73;102953;1255;137775;-69
2023/02/09 08:37:13;;;;;;;;;;;;;;;3.51;54.23;102278.31;103127;1258;97803;-69
2023/02/09 08:39:39;;;;;;;63.20;41.20;;;;;;;3.85;53.51;102269.48;102326;1255;1002768;-69
2023/02/09 08:42:07;;;;;;;65.60;41.10;;;;;;;4.13;51.46;102269.38;102704;1261;138309;-69
2023/02/09 08:44:34;;;;;;;69.30;41.10;;;;;;;4.34;51.41;102270.97;103020;1259;98188;-69
2023/02/09 08:47:01;;;;;;;66.20;41.40;;;;;;;4.47;50.76;102273.69;102958;1255;137635;-69
2023/02/09 08:49:29;;;;;;;63.70;41.90;;;;;;;4.67;51.79;102269.88;103087;1255;97804;-68
2023/02/09 08:51:56;;;;;;;67.60;41.80;;;;;;;4.98;51.91;102269.77;103115;1259;111314;-69
2023/02/09 08:54:24;;;;;;;65.00;40.20;;;;;;;5.25;50.95;102267.95;102999;1258;108901;-69
2023/02/09 08:56:51;;;;;;;63.80;40.10;;;;;;;5.43;49.27;102269.39;103106;1255;97691;-69
2023/02/09 08:59:18;;;;;;;66.00;39.90;;;;;;;5.53;49.68;102267.51;102883;1255;137635;-69
2023/02/09 09:01:46;;;;;;;65.80;38.70;;;;;;;5.71;49.21;102265.47;103057;1256;97799;-68
2023/02/09 09:04:13;;;;;;;63.80;39.10;;;;;;;5.82;48.90;102259.48;103017;1256;137813;-68
2023/02/09 09:06:42;;;;;;;63.60;39.20;;;;;;;6.04;49.82;102256.81;102924;1261;105918;-68
2023/02/09 09:09:10;;;;;;;66.70;41.80;;;;;;;6.34;49.16;102250.97;102137;1255;1003277;-67
2023/02/09 09:11:38;;;;;;;64.50;40.10;;;;;;;6.54;48.49;102246.98;102766;1257;138013;-69
2023/02/09 09:14:05;;;;;;;64.10;38.90;;;;;;;6.64;47.96;102248.55;103134;1258;97821;-68
2023/02/09 09:16:32;;;;;;;65.80;41.20;;;;;;;6.75;47.57;102244.20;102727;1255;138098;-68
2023/02/09 09:18:59;;;;;;;61.00;37.50;;;;;;;6.80;46.82;102245.30;102939;1259;108709;-69
2023/02/09 09:21:26;;;;;;;62.90;39.90;;;;;;;6.86;47.21;102245.25;103064;1260;97691;-68
2023/02/09 09:23:53;;;;;;;65.40;40.30;;;;;;;6.93;46.42;102246.72;102994;1255;137637;-68
2023/02/09 09:26:20;;;;;;;66.90;40.50;;;;;;;6.92;46.02;102241.35;103031;1260;97831;-68
2023/02/09 09:28:50;;;;;;;62.10;40.80;;;;;;;7.02;46.15;102235.80;102764;1260;137822;-70
2023/02/09 09:31:18;;;;;;;66.70;40.50;;;;;;;7.09;45.88;102241.07;102862;1255;109066;-69
2023/02/09 09:33:46;;;;;;;64.60;39.40;;;;;;;7.09;45.60;102245.22;103049;1256;99668;-71
2023/02/09 09:36:14;;;;;;;65.30;38.20;;;;;;;7.13;44.89;102247.35;103058;1255;137491;-69
2023/02/09 09:38:44;;;;;;;64.20;39.90;;;;;;;7.07;45.02;102242.60;103054;1259;97897;-69
2023/02/09 09:41:22;;;;;;;66.70;38.60;;;;;;;7.06;45.29;102243.81;103070;1256;139079;-68
2023/02/09 09:43:50;;;;;;;63.10;39.70;;;;;;;6.98;44.56;102242.13;102928;1256;108963;-68
2023/02/09 09:46:20;;;;;;;64.90;39.80;;;;;;;6.80;44.09;102231.32;102963;1255;138074;-66
2023/02/09 09:48:51;;;;;;;68.60;41.00;;;;;;;6.52;44.27;102237.79;103026;1256;107494;-66
2023/02/09 09:51:24;;;;;;;72.50;40.60;;;;;;;6.37;45.13;102228.56;102938;1260;98372;-66
2023/02/09 09:53:54;;;;;;;65.80;39.20;;;;;;;6.37;45.11;102236.51;102874;1256;137674;-68
2023/02/09 09:56:22;;;;;;;63.20;38.10;;;;;;;6.17;43.74;102234.95;102850;1260;107629;-67
2023/02/09 09:58:53;;;;;;;65.10;39.20;;;;;;;5.98;45.58;102228.39;102791;1255;139716;-67
2023/02/09 10:01:22;;;;;;;64.50;36.30;;;;;;;6.08;46.03;102221.48;102903;1256;108803;-64
2023/02/09 10:03:49;;;;;;;58.90;37.20;;;;;;;6.08;45.13;102219.23;104430;1259;97323;-67
2023/02/09 10:06:19;;;;;;;60.70;37.40;;;;;;;5.93;44.12;102218.11;104329;1255;137473;-67
2023/02/09 10:08:52;;;;;;;60.30;36.80;;;;;;;5.75;44.91;102213.25;104413;1255;107218;-66
2023/02/09 10:11:27;;;;;;;53.40;35.20;;;;;;;5.62;44.91;102210.23;104207;1255;138064;-66
2023/02/09 10:13:56;;;;;;;61.50;37.00;;;;;;;5.43;45.09;102208.30;103583;1255;108188;-66
2023/02/09 10:16:26;;;;;;;64.70;37.20;;;;;;;5.30;45.85;102196.84;102817;1255;138114;-66
2023/02/09 10:18:54;;;;;;;59.00;34.90;;;;;;;5.24;45.90;102199.64;102932;1260;112511;-65
2023/02/09 10:21:23;;;;;;;58.50;34.60;;;;;;;5.18;46.79;102185.89;102902;1255;108320;-65
2023/02/09 10:24:03;;;;;;;59.30;36.00;;;;;;;5.31;46.49;102182.88;102913;1255;137839;-65
2023/02/09 10:26:32;;;;;;;53.20;33.70;;;;;;;5.25;45.57;102185.70;103161;1255;107353;-65
2023/02/09 10:29:07;;;;;;;57.80;35.30;;;;;;;4.88;45.96;102179.73;102950;1260;137984;-66
2023/02/09 10:31:38;;;;;;;60.30;34.80;;;;;;;4.66;46.62;102171.64;103133;1255;111213;-65
2023/02/09 10:34:13;;;;;;;58.20;34.20;;;;;;;4.53;47.21;102166.03;102789;1260;138073;-66
2023/02/09 10:36:50;;;;;;;60.70;36.00;;;;;;;4.40;47.50;102157.79;103145;1256;97759;-63
2023/02/09 10:39:22;;;;;;;58.00;32.80;;;;;;;4.18;47.76;102160.86;103173;1258;108890;-66
2023/02/09 10:41:51;;;;;;;54.60;33.20;;;;;;;4.04;48.37;102156.05;102859;1259;137869;-66
2023/02/09 10:44:23;;;;;;;61.90;34.70;;;;;;;4.05;48.29;102148.67;102154;1255;1003299;-65
2023/02/09 10:47:08;;;;;;;55.70;32.90;;;;;;;4.06;47.88;102144.21;102892;1256;139121;-66
2023/02/09 10:49:38;;;;;;;56.90;34.90;;;;;;;3.94;47.95;102135.46;103076;1255;97807;-65
2023/02/09 10:52:17;;;;;;;55.30;32.40;;;;;;;3.77;48.76;102127.63;102940;1255;138357;-64
2023/02/09 10:54:47;;;;;;;50.10;30.10;;;;;;;3.64;49.27;102127.14;103103;1259;97994;-65
2023/02/09 10:57:24;;;;;;;52.40;31.10;;;;;;;3.39;48.94;102117.36;102975;1258;110765;-65
2023/02/09 10:59:57;;;;;;;58.90;32.60;;;;;;;3.20;49.60;102112.54;103590;1261;137821;-65
2023/02/09 11:02:41;;;;;;;53.30;30.00;;;;;;;3.09;49.74;102110.48;103574;1255;97895;-68
2023/02/09 11:05:28;;;;;;;55.20;30.50;;;;;;;3.00;50.03;102103.20;102943;1255;137592;-69
2023/02/09 11:07:58;;;;;;;49.00;28.60;;;;;;;3.02;50.42;102094.50;103096;1259;97793;-67
2023/02/09 11:10:29;;;;;;;48.40;28.40;;;;;;;3.12;51.24;102093.39;102953;1255;137855;-65
2023/02/09 11:12:57;;;;;;;45.10;26.50;;;;;;;3.34;50.52;102085.59;103722;1255;109486;-65
2023/02/09 11:15:29;;;;;;;43.10;25.90;;;;;;;3.43;50.05;102083.76;102966;1258;99140;-65
2023/02/09 11:18:05;;;;;;;44.50;24.60;;;;;;;3.48;49.46;102085.27;103126;1256;137823;-65
2023/02/09 11:20:40;;;;;;;41.60;25.10;;;;;;;3.51;50.03;102076.08;103064;1255;98311;-66
2023/02/09 11:23:35;;;;;;;40.10;23.10;;;;;;;3.61;50.45;102076.66;102977;1260;137864;-65